Portada
METAR-TAF:

METAR-TAF

Aeroports :

Lo Mont, França

latitud: 43-55N, longitud: 000-30W, altitud: 62 m

Observació

L'informe es va fer fa 21 minuts, a les 14:00 UTC
Vent 8 kt del Est amb ràfegues de 21 kt, variant entre Nord-Est i Sud/Sud-Est
Temperatura 24°C
Humitat 36%
Pressió 1021 hPa
Visibilitat 10 km o més
sense núvols per sota de 1500 mi sense presència de cumulonimbus.

METAR: LFBM 191400Z AUTO 10008G21KT 050V150 CAVOK 24/08 Q1021

Hora: 16:21 (14:21 UTC)

Pronòstic

L'informe es va fer fa 6 hores i 21 minuts, a les 08:00 UTC
Pronòstic vàlid del 19 a les 09 UTC al 20 a les 09 UTC
Vent 5 kt del Est
Visibilitat 10 km o més
sense núvols per sota de 1500 mi sense presència de cumulonimbus.
Temporalment
l' 19 a les 09 UTC al 19 a les 10 UTC
Cel ennuvolat a una alçada de 600 ft
Temporalment
l' 19 a les 14 UTC al 19 a les 20 UTC
Vent 10 kt del Est amb ràfegues de 20 kt

TAF: LFBM 190800Z 1909/2009 09005KT CAVOK TEMPO 1909/1910 BKN006 TEMPO 1914/1920 09010G20KT

Observacions i pronòstics meteorològics de més de 4000 aeroports (METAR i TAF).

Les estacions disponibles són els punts grocs i vermells al mapa.

Posi el ratolí al punt desitjat per veure el nom de l'estació.

Feu clic per veure les observacions i els pronòstics meteorològics.

Per canviar el mapa: feu clic els botons verds amb una creu de color negre per apropar; al botó verd amb un guió per allunyar la imatge; o en les fletxes verdes per a mapes adjacents.


METAR-TAF: